地図

経路データ

SID SEASON NUMBER BASIN SUBBASIN NAME ISO_TIME NATURE LAT LON WMO_WIND WMO_PRES WMO_AGENCY TRACK_TYPE DIST2LAND LANDFALL IFLAG USA_AGENCY USA_ATCF_ID USA_LAT USA_LON USA_RECORD USA_STATUS USA_WIND USA_PRES USA_SSHS USA_R34_NE USA_R34_SE USA_R34_SW USA_R34_NW USA_R50_NE USA_R50_SE USA_R50_SW USA_R50_NW USA_R64_NE USA_R64_SE USA_R64_SW USA_R64_NW USA_POCI USA_ROCI USA_RMW USA_EYE TOKYO_LAT TOKYO_LON TOKYO_GRADE TOKYO_WIND TOKYO_PRES TOKYO_R50_DIR TOKYO_R50_LONG TOKYO_R50_SHORT TOKYO_R30_DIR TOKYO_R30_LONG TOKYO_R30_SHORT TOKYO_LAND CMA_LAT CMA_LON CMA_CAT CMA_WIND CMA_PRES HKO_LAT HKO_LON HKO_CAT HKO_WIND HKO_PRES NEWDELHI_LAT NEWDELHI_LON NEWDELHI_GRADE NEWDELHI_WIND NEWDELHI_PRES NEWDELHI_CI NEWDELHI_DP NEWDELHI_POCI REUNION_LAT REUNION_LON REUNION_TYPE REUNION_WIND REUNION_PRES REUNION_TNUM REUNION_CI REUNION_RMW REUNION_R34_NE REUNION_R34_SE REUNION_R34_SW REUNION_R34_NW REUNION_R50_NE REUNION_R50_SE REUNION_R50_SW REUNION_R50_NW REUNION_R64_NE REUNION_R64_SE REUNION_R64_SW REUNION_R64_NW BOM_LAT BOM_LON BOM_TYPE BOM_WIND BOM_PRES BOM_TNUM BOM_CI BOM_RMW BOM_R34_NE BOM_R34_SE BOM_R34_SW BOM_R34_NW BOM_R50_NE BOM_R50_SE BOM_R50_SW BOM_R50_NW BOM_R64_NE BOM_R64_SE BOM_R64_SW BOM_R64_NW BOM_ROCI BOM_POCI BOM_EYE BOM_POS_METHOD BOM_PRES_METHOD NADI_LAT NADI_LON NADI_CAT NADI_WIND NADI_PRES WELLINGTON_LAT WELLINGTON_LON WELLINGTON_WIND WELLINGTON_PRES DS824_LAT DS824_LON DS824_STAGE DS824_WIND DS824_PRES TD9636_LAT TD9636_LON TD9636_STAGE TD9636_WIND TD9636_PRES TD9635_LAT TD9635_LON TD9635_WIND TD9635_PRES TD9635_ROCI NEUMANN_LAT NEUMANN_LON NEUMANN_CLASS NEUMANN_WIND NEUMANN_PRES MLC_LAT MLC_LON MLC_CLASS MLC_WIND MLC_PRES USA_GUST BOM_GUST BOM_GUST_PER REUNION_GUST REUNION_GUST_PER USA_SEAHGT USA_SEARAD_NE USA_SEARAD_SE USA_SEARAD_SW USA_SEARAD_NW STORM_SPEED STORM_DIR
1922259N14147 1922 51 WP MM NOT_NAMED 1922-09-16 09:00:00 NR 14.0000 146.900 main 1803 1803 __________O___ -1 14.0000 146.900 2 21 316
1922259N14147 1922 51 WP MM NOT_NAMED 1922-09-16 12:00:00 NR 14.7512 146.142 main 1894 1894 __________P___ -1 14.7512 146.142 2 21 316
1922259N14147 1922 51 WP MM NOT_NAMED 1922-09-16 15:00:00 NR 15.4709 145.414 main 1976 1976 __________P___ -1 15.4709 145.414 2 19 316
1922259N14147 1922 51 WP MM NOT_NAMED 1922-09-16 18:00:00 NR 16.1300 144.755 main 2048 2046 __________P___ -1 16.1300 144.755 2 17 316
1922259N14147 1922 51 WP MM NOT_NAMED 1922-09-16 21:00:00 NR 16.7000 144.200 main 2046 1988 __________O___ -1 16.7000 144.200 2 14 318
1922259N14147 1922 51 WP MM NOT_NAMED 1922-09-17 00:00:00 NR 17.1666 143.772 main 1978 1931 __________P___ -1 17.1666 143.772 2 11 320
1922259N14147 1922 51 WP MM NOT_NAMED 1922-09-17 03:00:00 NR 17.5699 143.422 main 1920 1877 __________P___ -1 17.5699 143.422 2 10 321
1922259N14147 1922 51 WP MM NOT_NAMED 1922-09-17 06:00:00 NR 17.9635 143.087 main 1867 1810 __________P___ -1 17.9635 143.087 2 11 320
1922259N14147 1922 51 WP MM NOT_NAMED 1922-09-17 09:00:00 NR 18.4000 142.700 main 1810 1739 __________O___ -1 18.4000 142.700 2 13 318
1922259N14147 1922 51 WP MM NOT_NAMED 1922-09-17 12:00:00 NR 18.9423 142.149 main 1736 1655 __________P___ -1 18.9423 142.149 2 16 316
1922259N14147 1922 51 WP MM NOT_NAMED 1922-09-17 15:00:00 NR 19.5336 141.538 main 1651 1568 __________P___ -1 19.5336 141.538 2 17 316
1922259N14147 1922 51 WP MM NOT_NAMED 1922-09-17 18:00:00 NR 20.1579 140.908 main 1557 1475 __________P___ -1 20.1579 140.908 2 17 317
1922259N14147 1922 51 WP MM NOT_NAMED 1922-09-17 21:00:00 NR 20.8000 140.300 main 1475 1393 __________O___ -1 20.8000 140.300 2 17 320
1922259N14147 1922 51 WP MM NOT_NAMED 1922-09-18 00:00:00 NR 21.4352 139.742 main 1387 1303 __________P___ -1 21.4352 139.742 2 16 322
1922259N14147 1922 51 WP MM NOT_NAMED 1922-09-18 03:00:00 NR 22.0846 139.217 main 1294 1215 __________P___ -1 22.0846 139.217 2 16 324
1922259N14147 1922 51 WP MM NOT_NAMED 1922-09-18 06:00:00 NR 22.7417 138.733 main 1209 1122 __________P___ -1 22.7417 138.733 2 16 327
1922259N14147 1922 51 WP MM NOT_NAMED 1922-09-18 09:00:00 NR 23.4000 138.300 main 1122 1035 __________O___ -1 23.4000 138.300 2 16 329
1922259N14147 1922 51 WP MM NOT_NAMED 1922-09-18 12:00:00 NR 24.0902 137.848 main 1029 957 __________P___ -1 24.0902 137.848 2 16 331
1922259N14147 1922 51 WP MM NOT_NAMED 1922-09-18 15:00:00 NR 24.7746 137.457 main 948 877 __________P___ -1 24.7746 137.457 2 15 335
1922259N14147 1922 51 WP MM NOT_NAMED 1922-09-18 18:00:00 NR 25.4216 137.162 main 877 812 __________P___ -1 25.4216 137.162 2 13 341
1922259N14147 1922 51 WP MM NOT_NAMED 1922-09-18 21:00:00 NR 26.0000 137.000 main 812 771 __________O___ -1 26.0000 137.000 2 11 352
1922259N14147 1922 51 WP MM NOT_NAMED 1922-09-19 00:00:00 NR 26.4833 136.983 main 771 735 __________P___ -1 26.4833 136.983 2 9 6
1922259N14147 1922 51 WP MM NOT_NAMED 1922-09-19 03:00:00 NR 26.8967 137.103 main 735 706 __________P___ -1 26.8967 137.103 2 8 21
1922259N14147 1922 51 WP MM NOT_NAMED 1922-09-19 06:00:00 NR 27.2617 137.321 main 695 669 __________P___ -1 27.2617 137.321 2 8 32
1922259N14147 1922 51 WP MM NOT_NAMED 1922-09-19 09:00:00 NR 27.6000 137.600 main 669 642 __________O___ -1 27.6000 137.600 2 8 35
1922259N14147 1922 51 WP MM NOT_NAMED 1922-09-19 12:00:00 NR 27.9464 137.855 main 645 609 __________P___ -1 27.9464 137.855 2 8 36
1922259N14147 1922 51 WP MM NOT_NAMED 1922-09-19 15:00:00 NR 28.2722 138.161 main 613 593 __________P___ -1 28.2722 138.161 2 9 42
1922259N14147 1922 51 WP MM NOT_NAMED 1922-09-19 18:00:00 NR 28.5869 138.511 main 593 581 __________P___ -1 28.5869 138.511 2 9 46
1922259N14147 1922 51 WP MM NOT_NAMED 1922-09-19 21:00:00 NR 28.9000 138.900 main 581 568 __________O___ -1 28.9000 138.900 2 9 48
1922259N14147 1922 51 WP MM NOT_NAMED 1922-09-20 00:00:00 NR 29.2043 139.295 main 574 567 __________P___ -1 29.2043 139.295 2 9 50
1922259N14147 1922 51 WP MM NOT_NAMED 1922-09-20 03:00:00 NR 29.5118 139.728 main 570 549 __________P___ -1 29.5118 139.728 2 10 51
1922259N14147 1922 51 WP MM NOT_NAMED 1922-09-20 06:00:00 NR 29.8384 140.196 main 551 518 __________P___ -1 29.8384 140.196 2 11 51
1922259N14147 1922 51 WP MM NOT_NAMED 1922-09-20 09:00:00 NR 30.2000 140.700 main 521 494 __________O___ -1 30.2000 140.700 2 12 50
1922259N14147 1922 51 WP MM NOT_NAMED 1922-09-20 12:00:00 NR 30.6075 141.239 main 494 466 __________P___ -1 30.6075 141.239 2 13 48
1922259N14147 1922 51 WP MM NOT_NAMED 1922-09-20 15:00:00 NR 31.0524 141.806 main 459 439 __________P___ -1 31.0524 141.806 2 13 47
1922259N14147 1922 51 WP MM NOT_NAMED 1922-09-20 18:00:00 NR 31.5211 142.396 main 444 428 __________P___ -1 31.5211 142.396 2 14 47
1922259N14147 1922 51 WP MM NOT_NAMED 1922-09-20 21:00:00 NR 32.0000 143.000 main 430 __________O___ -1 32.0000 143.000 2 14 47

デジタル台風データ・検索

IBTrACS Databaseについて

本データベースは、米国NOAAが公開する1842年以降の世界の熱帯低気圧のベストトラックデータアーカイブInternational Best Track Archive for Climate Stewardship (IBTrACS)を、ウェブで閲覧しやすい形式に変換したものです。

最終更新日:2021-10-25